createdAt,value
2023-05-21T00:00:31.489Z,16.80
2023-05-21T00:02:59.103Z,16.70
2023-05-21T00:05:26.353Z,16.70
2023-05-21T00:07:54.725Z,16.70
2023-05-21T00:10:21.750Z,16.70
2023-05-21T00:12:48.663Z,16.70
2023-05-21T00:15:15.680Z,16.60
2023-05-21T00:17:43.263Z,16.60
2023-05-21T00:20:10.853Z,16.60
2023-05-21T00:22:37.893Z,16.60
2023-05-21T00:25:05.426Z,16.60
2023-05-21T00:27:32.635Z,16.60
2023-05-21T00:29:59.558Z,16.60
2023-05-21T00:32:26.683Z,16.60
2023-05-21T00:34:54.582Z,16.60
2023-05-21T00:37:24.537Z,16.50
2023-05-21T00:39:51.613Z,16.50
2023-05-21T00:42:18.964Z,16.50
2023-05-21T00:44:46.292Z,16.40
2023-05-21T00:47:14.569Z,16.40
2023-05-21T00:49:42.164Z,16.40
2023-05-21T00:52:09.275Z,16.40
2023-05-21T00:54:36.422Z,16.30
2023-05-21T00:57:04.894Z,16.30
2023-05-21T00:59:33.610Z,16.30
2023-05-21T01:02:03.964Z,16.30
2023-05-21T01:04:32.030Z,16.30
2023-05-21T01:06:59.288Z,16.30
2023-05-21T01:09:28.125Z,16.30
2023-05-21T01:11:56.426Z,16.30
2023-05-21T01:14:25.368Z,16.20
2023-05-21T01:16:53.450Z,16.20
2023-05-21T01:19:25.312Z,16.20
2023-05-21T01:22:00.275Z,16.10
2023-05-21T01:24:27.337Z,16.10
2023-05-21T01:26:54.288Z,16.10
2023-05-21T01:29:21.684Z,16.10
2023-05-21T01:32:44.549Z,16.00
2023-05-21T01:35:27.764Z,16.00
2023-05-21T01:38:34.024Z,15.90
2023-05-21T01:41:10.212Z,15.90
2023-05-21T01:43:42.562Z,15.90
2023-05-21T01:46:17.867Z,15.90
2023-05-21T01:48:45.189Z,15.80
2023-05-21T01:51:14.249Z,15.80
2023-05-21T01:53:41.739Z,15.70
2023-05-21T01:56:08.778Z,15.70
2023-05-21T01:58:35.991Z,15.70
2023-05-21T02:01:04.490Z,15.70
2023-05-21T02:03:31.884Z,15.70
2023-05-21T02:05:59.030Z,15.70
2023-05-21T02:08:27.166Z,15.70
2023-05-21T02:10:54.150Z,15.70
2023-05-21T02:13:24.245Z,15.60
2023-05-21T02:15:54.444Z,15.60
2023-05-21T02:18:22.057Z,15.50
2023-05-21T02:20:49.321Z,15.50
2023-05-21T02:23:16.234Z,15.50
2023-05-21T02:25:43.837Z,15.60
2023-05-21T02:28:10.777Z,15.50
2023-05-21T02:30:37.835Z,15.50
2023-05-21T02:33:04.881Z,15.40
2023-05-21T02:35:32.191Z,15.40
2023-05-21T02:37:59.320Z,15.40
2023-05-21T02:40:26.403Z,15.40
2023-05-21T02:42:53.443Z,15.40
2023-05-21T02:45:20.379Z,15.40
2023-05-21T02:47:47.420Z,15.40
2023-05-21T02:50:14.986Z,15.40
2023-05-21T02:52:41.902Z,15.30
2023-05-21T02:55:10.399Z,15.30
2023-05-21T02:57:37.438Z,15.30
2023-05-21T03:00:09.743Z,15.30
2023-05-21T03:02:36.882Z,15.30
2023-05-21T03:05:05.114Z,15.20
2023-05-21T03:07:32.321Z,15.20
2023-05-21T03:09:59.418Z,15.10
2023-05-21T03:12:26.447Z,15.10
2023-05-21T03:14:53.459Z,15.20
2023-05-21T03:17:20.473Z,15.20
2023-05-21T03:19:48.965Z,15.10
2023-05-21T03:22:16.030Z,15.10
2023-05-21T03:24:45.044Z,15.10
2023-05-21T03:27:12.072Z,15.10
2023-05-21T03:29:39.937Z,15.10
2023-05-21T03:32:07.620Z,15.10
2023-05-21T03:34:34.638Z,15.10
2023-05-21T03:37:01.603Z,15.10
2023-05-21T03:39:28.560Z,15.10
2023-05-21T03:41:55.496Z,15.10
2023-05-21T03:44:22.521Z,15.10
2023-05-21T03:46:49.438Z,15.10
2023-05-21T03:49:16.450Z,15.00
2023-05-21T03:51:43.393Z,15.00
2023-05-21T03:54:10.395Z,15.00
2023-05-21T03:56:37.392Z,15.00
2023-05-21T03:59:04.861Z,15.00
2023-05-21T04:01:32.934Z,15.00
2023-05-21T04:04:00.098Z,15.00
2023-05-21T04:06:27.146Z,15.00
2023-05-21T04:08:54.189Z,15.00
2023-05-21T04:11:21.095Z,15.00
2023-05-21T04:13:48.092Z,15.00
2023-05-21T04:16:18.987Z,15.10
2023-05-21T04:18:47.130Z,15.10
2023-05-21T04:21:14.227Z,15.10
2023-05-21T04:23:41.204Z,15.10
2023-05-21T04:26:08.259Z,15.20
2023-05-21T04:28:35.323Z,15.20
2023-05-21T04:31:02.719Z,15.20
2023-05-21T04:33:30.280Z,15.30
2023-05-21T04:35:57.727Z,15.30
2023-05-21T04:38:24.648Z,15.30
2023-05-21T04:40:52.082Z,15.30
2023-05-21T04:43:25.989Z,15.40
2023-05-21T04:45:58.421Z,15.50
2023-05-21T04:48:27.402Z,15.50
2023-05-21T04:50:56.031Z,15.60
2023-05-21T04:53:25.797Z,15.60
2023-05-21T04:55:52.792Z,15.70
2023-05-21T04:58:19.844Z,15.70
2023-05-21T05:00:47.363Z,15.80
2023-05-21T05:03:14.714Z,15.80
2023-05-21T05:05:42.014Z,15.90
2023-05-21T05:08:09.019Z,15.90
2023-05-21T05:10:36.288Z,16.00
2023-05-21T05:13:03.858Z,16.00
2023-05-21T05:15:31.025Z,16.10
2023-05-21T05:17:58.153Z,16.20
2023-05-21T05:20:25.294Z,16.30
2023-05-21T05:22:52.216Z,16.30
2023-05-21T05:25:19.306Z,16.40
2023-05-21T05:27:46.312Z,16.50
2023-05-21T05:30:14.455Z,16.60
2023-05-21T05:32:41.377Z,16.70
2023-05-21T05:35:09.452Z,16.80
2023-05-21T05:37:36.468Z,16.90
2023-05-21T05:40:05.112Z,16.90
2023-05-21T05:42:32.086Z,17.00
2023-05-21T05:44:59.053Z,17.10
2023-05-21T05:47:26.264Z,17.20
2023-05-21T05:49:53.234Z,17.20
2023-05-21T05:52:20.360Z,17.40
2023-05-21T05:54:47.443Z,17.40
2023-05-21T05:57:14.594Z,17.50
2023-05-21T05:59:41.543Z,17.60
2023-05-21T06:02:08.486Z,17.60
2023-05-21T06:04:43.397Z,17.70
2023-05-21T06:07:11.321Z,17.70
2023-05-21T06:09:38.867Z,17.70
2023-05-21T06:12:07.714Z,17.80
2023-05-21T06:14:37.990Z,17.70
2023-05-21T06:17:05.450Z,17.80
2023-05-21T06:19:32.530Z,17.80
2023-05-21T06:21:59.543Z,17.90
2023-05-21T06:24:26.564Z,17.90
2023-05-21T06:26:53.533Z,18.00
2023-05-21T06:29:20.477Z,18.10
2023-05-21T06:31:48.514Z,18.10
2023-05-21T06:34:15.631Z,18.20
2023-05-21T06:36:42.678Z,18.20
2023-05-21T06:39:10.205Z,18.20
2023-05-21T06:41:37.105Z,18.40
2023-05-21T06:44:04.818Z,18.50
2023-05-21T06:46:32.255Z,18.60
2023-05-21T06:49:00.987Z,18.70
2023-05-21T06:51:27.898Z,18.80
2023-05-21T06:53:54.788Z,18.90
2023-05-21T06:56:21.917Z,19.10
2023-05-21T06:58:48.812Z,19.20
2023-05-21T07:01:16.285Z,19.30
2023-05-21T07:03:43.453Z,19.50
2023-05-21T07:06:10.638Z,19.60
2023-05-21T07:08:37.628Z,19.60
2023-05-21T07:11:04.617Z,19.70
2023-05-21T07:13:31.641Z,19.80
2023-05-21T07:15:58.561Z,19.90
2023-05-21T07:18:25.547Z,20.20
2023-05-21T07:20:52.565Z,20.20
2023-05-21T07:23:21.184Z,20.40
2023-05-21T07:25:48.253Z,20.50
2023-05-21T07:28:15.416Z,20.60
2023-05-21T07:30:42.472Z,20.60
2023-05-21T07:33:09.595Z,20.70
2023-05-21T07:35:36.833Z,20.80
2023-05-21T07:38:04.159Z,21.10
2023-05-21T07:40:31.171Z,21.30
2023-05-21T07:42:58.340Z,21.20
2023-05-21T07:45:25.468Z,21.20
2023-05-21T07:47:52.394Z,21.20
2023-05-21T07:50:19.355Z,21.50
2023-05-21T07:52:46.389Z,21.70
2023-05-21T07:55:13.384Z,21.90
2023-05-21T07:57:40.321Z,22.20
2023-05-21T08:03:39.408Z,22.20
2023-05-21T08:06:06.664Z,22.20
2023-05-21T08:08:34.240Z,22.30
2023-05-21T08:11:01.764Z,22.60
2023-05-21T08:13:28.796Z,22.50
2023-05-21T08:15:55.798Z,22.30
2023-05-21T08:18:23.826Z,22.40
2023-05-21T08:20:51.588Z,22.40
2023-05-21T08:23:18.521Z,22.30
2023-05-21T08:25:45.579Z,22.30
2023-05-21T08:28:12.511Z,22.20
2023-05-21T08:30:39.519Z,22.30
2023-05-21T08:33:06.544Z,22.20
2023-05-21T08:35:33.600Z,22.30
2023-05-21T08:38:00.567Z,22.10
2023-05-21T08:40:27.498Z,21.80
2023-05-21T08:42:54.483Z,21.70
2023-05-21T08:45:23.667Z,21.70
2023-05-21T08:47:58.437Z,21.70
2023-05-21T08:50:28.232Z,21.90
2023-05-21T08:52:55.544Z,22.00
2023-05-21T08:55:23.545Z,22.00
2023-05-21T08:57:54.106Z,22.10
2023-05-21T09:00:21.410Z,22.20
2023-05-21T09:02:48.440Z,22.30
2023-05-21T09:05:16.778Z,22.40
2023-05-21T09:07:58.792Z,22.50
2023-05-21T09:10:37.794Z,22.60
2023-05-21T09:13:05.436Z,22.70
2023-05-21T09:15:33.163Z,22.90
2023-05-21T09:18:00.217Z,23.00
2023-05-21T09:20:28.898Z,23.10
2023-05-21T09:22:55.933Z,23.40
2023-05-21T09:25:30.297Z,24.10
2023-05-21T09:27:58.589Z,24.80
2023-05-21T09:30:29.719Z,25.00
2023-05-21T09:33:00.406Z,25.40
2023-05-21T09:35:27.764Z,25.50
2023-05-21T09:37:57.225Z,25.80
2023-05-21T09:40:24.853Z,26.40
2023-05-21T09:42:55.611Z,26.80
2023-05-21T09:45:26.369Z,27.20
2023-05-21T09:47:56.512Z,27.70
2023-05-21T09:50:28.244Z,27.20
2023-05-21T09:52:56.271Z,27.00
2023-05-21T09:55:26.497Z,26.90
2023-05-21T09:57:53.796Z,27.10
2023-05-21T10:00:28.582Z,27.80
2023-05-21T10:03:01.408Z,27.60
2023-05-21T10:05:31.116Z,27.30
2023-05-21T10:08:04.263Z,27.50
2023-05-21T10:10:32.545Z,28.00
2023-05-21T10:13:12.910Z,28.10
2023-05-21T10:15:47.093Z,28.40
2023-05-21T10:18:17.077Z,29.30
2023-05-21T10:20:45.852Z,29.40
2023-05-21T10:23:15.461Z,29.30
2023-05-21T10:25:43.178Z,29.50
2023-05-21T10:28:15.001Z,30.20
2023-05-21T10:30:43.327Z,29.50
2023-05-21T10:33:16.268Z,28.90
2023-05-21T10:35:47.445Z,28.90
2023-05-21T10:38:20.431Z,28.90
2023-05-21T10:40:50.045Z,29.10
2023-05-21T10:44:39.401Z,29.40
2023-05-21T10:48:13.654Z,29.80
2023-05-21T10:51:18.791Z,30.00
2023-05-21T10:54:38.391Z,29.80
2023-05-21T10:57:51.867Z,30.00
2023-05-21T11:00:21.102Z,29.90
2023-05-21T11:02:52.011Z,29.70
2023-05-21T11:06:02.659Z,29.60
2023-05-21T11:08:35.541Z,30.40
2023-05-21T11:11:04.601Z,31.00
2023-05-21T11:13:50.281Z,31.80
2023-05-21T11:16:18.202Z,31.40
2023-05-21T11:18:47.938Z,31.20
2023-05-21T11:21:22.759Z,30.80
2023-05-21T11:24:02.513Z,30.80
2023-05-21T11:26:48.010Z,31.50
2023-05-21T11:29:16.250Z,30.80
2023-05-21T11:32:01.364Z,30.60
2023-05-21T11:34:45.702Z,30.30
2023-05-21T11:37:20.638Z,29.70
2023-05-21T11:39:50.606Z,29.40
2023-05-21T11:42:38.651Z,29.50
2023-05-21T11:45:07.105Z,29.70
2023-05-21T11:47:34.140Z,29.00
2023-05-21T11:50:04.112Z,28.80
2023-05-21T11:52:32.930Z,28.50
2023-05-21T11:55:00.262Z,28.80
2023-05-21T11:57:31.177Z,28.90
2023-05-21T12:00:02.248Z,28.70
2023-05-21T12:02:33.189Z,28.50
2023-05-21T12:05:03.959Z,28.50
2023-05-21T12:07:31.306Z,28.50
2023-05-21T12:10:00.173Z,28.20
2023-05-21T12:12:38.520Z,27.80
2023-05-21T12:15:10.544Z,28.00
2023-05-21T12:17:37.712Z,27.90
2023-05-21T12:20:08.312Z,28.00
2023-05-21T12:22:35.381Z,28.00
2023-05-21T12:25:05.196Z,27.80
2023-05-21T12:27:33.483Z,27.90
2023-05-21T12:30:01.905Z,28.00
2023-05-21T12:32:29.995Z,28.30
2023-05-21T12:34:57.009Z,28.40
2023-05-21T12:37:32.301Z,28.40
2023-05-21T12:40:04.866Z,27.90
2023-05-21T12:42:36.683Z,27.90
2023-05-21T12:45:09.241Z,28.40
2023-05-21T12:47:38.901Z,28.70
2023-05-21T12:50:14.410Z,29.10
2023-05-21T12:52:44.276Z,29.60
2023-05-21T12:55:14.986Z,29.50
2023-05-21T12:57:43.781Z,29.60
2023-05-21T13:00:11.747Z,30.00
2023-05-21T13:02:45.705Z,30.50
2023-05-21T13:05:19.383Z,30.80
2023-05-21T13:07:49.511Z,31.20
2023-05-21T13:10:16.842Z,31.00
2023-05-21T13:12:45.360Z,31.00
2023-05-21T13:15:12.880Z,31.20
2023-05-21T13:17:39.973Z,31.30
2023-05-21T13:20:15.116Z,30.70
2023-05-21T13:22:46.864Z,30.20
2023-05-21T13:25:24.430Z,30.30
2023-05-21T13:27:53.572Z,31.20
2023-05-21T13:30:22.516Z,31.20
2023-05-21T13:32:49.964Z,31.20
2023-05-21T13:35:17.681Z,31.00
2023-05-21T13:37:45.938Z,30.90
2023-05-21T13:40:16.013Z,31.10
2023-05-21T13:42:46.394Z,31.30
2023-05-21T13:45:19.857Z,31.30
2023-05-21T13:47:48.306Z,31.30
2023-05-21T13:50:16.306Z,31.00
2023-05-21T13:52:43.722Z,30.90
2023-05-21T13:55:13.290Z,31.00
2023-05-21T13:57:40.556Z,31.80
2023-05-21T14:00:14.089Z,32.40
2023-05-21T14:02:43.385Z,32.00
2023-05-21T14:05:11.815Z,31.30
2023-05-21T14:07:39.902Z,30.90
2023-05-21T14:10:07.996Z,31.10
2023-05-21T14:12:34.962Z,31.80
2023-05-21T14:15:03.314Z,31.80
2023-05-21T14:17:30.457Z,31.60
2023-05-21T14:19:57.510Z,31.20
2023-05-21T14:22:24.495Z,31.00
2023-05-21T14:24:52.566Z,31.50
2023-05-21T14:27:19.500Z,31.10
2023-05-21T14:29:46.564Z,31.50
2023-05-21T14:32:13.563Z,31.60
2023-05-21T14:34:42.153Z,31.30
2023-05-21T14:37:09.842Z,31.30
2023-05-21T14:39:36.809Z,30.90
2023-05-21T14:42:05.241Z,30.40
2023-05-21T14:44:32.625Z,29.80
2023-05-21T14:46:59.734Z,28.80
2023-05-21T14:49:26.663Z,27.80
2023-05-21T14:51:53.692Z,27.00
2023-05-21T14:54:20.640Z,26.70
2023-05-21T14:56:47.656Z,26.80
2023-05-21T14:59:14.693Z,27.20
2023-05-21T15:01:41.795Z,27.70
2023-05-21T15:04:09.033Z,28.20
2023-05-21T15:06:36.428Z,28.10
2023-05-21T15:09:03.498Z,28.30
2023-05-21T15:11:30.473Z,28.50
2023-05-21T15:13:57.663Z,28.50
2023-05-21T15:16:24.709Z,28.80
2023-05-21T15:18:51.846Z,29.00
2023-05-21T15:21:19.850Z,29.20
2023-05-21T15:23:46.843Z,29.60
2023-05-21T15:26:13.889Z,29.90
2023-05-21T15:28:40.994Z,30.50
2023-05-21T15:31:08.035Z,30.30
2023-05-21T15:33:35.010Z,29.70
2023-05-21T15:36:01.976Z,30.10
2023-05-21T15:38:29.123Z,30.00
2023-05-21T15:40:57.402Z,29.60
2023-05-21T15:43:24.373Z,29.10
2023-05-21T15:45:51.383Z,29.00
2023-05-21T15:48:22.392Z,29.20
2023-05-21T15:50:49.980Z,29.20
2023-05-21T15:53:17.143Z,29.20
2023-05-21T15:55:44.730Z,29.70
2023-05-21T15:58:12.028Z,29.70
2023-05-21T16:00:39.090Z,29.10
2023-05-21T16:03:06.326Z,28.80
2023-05-21T16:05:33.503Z,28.80
2023-05-21T16:08:00.454Z,28.80
2023-05-21T16:10:27.412Z,28.80
2023-05-21T16:12:54.394Z,28.70
2023-05-21T16:15:21.432Z,28.50
2023-05-21T16:17:48.435Z,28.40
2023-05-21T16:20:16.058Z,28.40
2023-05-21T16:22:43.036Z,28.70
2023-05-21T16:25:10.104Z,28.40
2023-05-21T16:27:37.131Z,27.90
2023-05-21T16:30:05.395Z,27.50
2023-05-21T16:32:32.977Z,27.40
2023-05-21T16:35:00.217Z,27.00
2023-05-21T16:37:27.246Z,26.90
2023-05-21T16:39:54.190Z,26.80
2023-05-21T16:42:21.148Z,26.30
2023-05-21T16:44:48.161Z,26.00
2023-05-21T16:47:15.221Z,25.70
2023-05-21T16:49:42.191Z,25.40
2023-05-21T16:52:10.343Z,25.10
2023-05-21T16:54:37.400Z,24.80
2023-05-21T16:57:04.408Z,24.60
2023-05-21T16:59:31.334Z,24.50
2023-05-21T17:01:58.404Z,24.40
2023-05-21T17:04:28.012Z,24.20
2023-05-21T17:06:55.395Z,24.10
2023-05-21T17:09:22.410Z,24.10
2023-05-21T17:11:49.494Z,24.00
2023-05-21T17:14:32.682Z,23.90
2023-05-21T17:17:01.165Z,23.90
2023-05-21T17:19:28.302Z,23.80
2023-05-21T17:21:56.225Z,23.80
2023-05-21T17:24:23.378Z,23.70
2023-05-21T17:26:50.462Z,23.50
2023-05-21T17:29:17.544Z,23.50
2023-05-21T17:31:44.756Z,23.30
2023-05-21T17:34:12.014Z,23.30
2023-05-21T17:36:39.069Z,23.20
2023-05-21T17:39:06.110Z,23.10
2023-05-21T17:41:33.144Z,23.00
2023-05-21T17:44:00.240Z,22.90
2023-05-21T17:46:27.267Z,22.80
2023-05-21T17:48:54.291Z,22.80
2023-05-21T17:51:21.262Z,22.70
2023-05-21T17:53:48.297Z,22.60
2023-05-21T17:56:15.248Z,22.50
2023-05-21T17:58:42.492Z,22.40
2023-05-21T18:01:09.684Z,22.30
2023-05-21T18:03:36.707Z,22.20
2023-05-21T18:06:03.942Z,22.10
2023-05-21T18:08:30.998Z,22.00
2023-05-21T18:10:58.104Z,21.80
2023-05-21T18:13:25.087Z,21.80
2023-05-21T18:15:52.162Z,21.70
2023-05-21T18:18:21.626Z,21.60
2023-05-21T18:20:50.512Z,21.50
2023-05-21T18:23:20.623Z,21.50
2023-05-21T18:25:47.598Z,21.40
2023-05-21T18:28:14.613Z,21.40
2023-05-21T18:30:41.563Z,21.30
2023-05-21T18:33:08.559Z,21.20
2023-05-21T18:35:35.654Z,21.10
2023-05-21T18:38:04.026Z,21.00
2023-05-21T18:40:33.077Z,21.00
2023-05-21T18:43:00.572Z,20.90
2023-05-21T18:45:27.953Z,20.90
2023-05-21T18:47:55.612Z,20.80
2023-05-21T18:50:22.731Z,20.60
2023-05-21T18:52:55.950Z,20.50
2023-05-21T18:55:23.340Z,20.40
2023-05-21T18:57:50.716Z,20.30
2023-05-21T19:00:18.364Z,20.10
2023-05-21T19:02:45.434Z,20.00
2023-05-21T19:05:12.589Z,19.80
2023-05-21T19:07:43.277Z,19.70
2023-05-21T19:10:12.640Z,19.60
2023-05-21T19:12:41.728Z,19.50
2023-05-21T19:15:10.430Z,19.40
2023-05-21T19:17:39.498Z,19.30
2023-05-21T19:20:09.277Z,19.30
2023-05-21T19:22:37.198Z,19.20
2023-05-21T19:25:04.937Z,19.20
2023-05-21T19:27:31.970Z,19.10
2023-05-21T19:29:58.995Z,19.10
2023-05-21T19:32:26.122Z,19.20
2023-05-21T19:34:53.150Z,19.30
2023-05-21T19:37:20.154Z,19.30
2023-05-21T19:39:49.826Z,19.20
2023-05-21T19:42:22.667Z,19.00
2023-05-21T19:44:49.718Z,19.10
2023-05-21T19:47:16.781Z,19.00
2023-05-21T19:49:43.805Z,19.10
2023-05-21T19:52:11.960Z,19.10
2023-05-21T19:54:39.060Z,19.10
2023-05-21T19:57:06.664Z,19.10
2023-05-21T19:59:33.736Z,19.20
2023-05-21T20:02:00.945Z,19.30
2023-05-21T20:04:27.837Z,19.30
2023-05-21T20:06:54.850Z,19.30
2023-05-21T20:09:27.463Z,19.30
2023-05-21T20:11:57.136Z,19.20
2023-05-21T20:14:24.104Z,19.20
2023-05-21T20:16:53.362Z,19.20
2023-05-21T20:19:22.818Z,19.10
2023-05-21T20:21:49.955Z,19.00
2023-05-21T20:24:17.040Z,19.00
2023-05-21T20:26:44.802Z,18.90
2023-05-21T20:29:11.854Z,18.80
2023-05-21T20:31:38.884Z,18.70
2023-05-21T20:34:07.471Z,18.70
2023-05-21T20:36:35.989Z,18.60
2023-05-21T20:39:03.651Z,18.50
2023-05-21T20:41:37.577Z,18.50
2023-05-21T20:44:06.497Z,18.50
2023-05-21T20:46:38.251Z,18.50
2023-05-21T20:49:06.156Z,18.50
2023-05-21T20:51:33.665Z,18.40
2023-05-21T20:54:00.865Z,18.30
2023-05-21T20:56:40.999Z,18.30
2023-05-21T20:59:11.261Z,18.30
2023-05-21T21:01:39.097Z,18.30
2023-05-21T21:04:06.299Z,18.20
2023-05-21T21:06:33.736Z,18.20
2023-05-21T21:09:00.756Z,18.20
2023-05-21T21:11:27.789Z,18.10
2023-05-21T21:13:54.726Z,18.10
2023-05-21T21:16:21.915Z,18.00
2023-05-21T21:18:48.965Z,18.00
2023-05-21T21:21:16.073Z,17.90
2023-05-21T21:23:43.047Z,17.90
2023-05-21T21:26:10.089Z,17.80
2023-05-21T21:28:37.051Z,17.80
2023-05-21T21:31:04.203Z,17.80
2023-05-21T21:33:31.186Z,17.80
2023-05-21T21:36:00.016Z,17.80
2023-05-21T21:38:27.181Z,17.70
2023-05-21T21:40:54.603Z,17.70
2023-05-21T21:43:21.535Z,17.70
2023-05-21T21:45:48.489Z,17.60
2023-05-21T21:48:16.437Z,17.50
2023-05-21T21:50:43.381Z,17.50
2023-05-21T21:53:12.529Z,17.50
2023-05-21T21:55:39.617Z,17.50
2023-05-21T21:58:07.054Z,17.50
2023-05-21T22:00:34.985Z,17.40
2023-05-21T22:03:02.152Z,17.40
2023-05-21T22:05:31.180Z,17.40
2023-05-21T22:07:58.313Z,17.30
2023-05-21T22:10:25.566Z,17.20
2023-05-21T22:12:52.492Z,17.20
2023-05-21T22:15:28.419Z,17.10
2023-05-21T22:17:55.543Z,17.20
2023-05-21T22:20:23.171Z,17.20
2023-05-21T22:22:50.398Z,17.10
2023-05-21T22:25:17.641Z,17.10
2023-05-21T22:27:44.599Z,17.10
2023-05-21T22:30:12.488Z,17.10
2023-05-21T22:32:40.076Z,17.10
2023-05-21T22:35:08.465Z,17.10
2023-05-21T22:37:37.211Z,17.10
2023-05-21T22:40:09.132Z,17.10
2023-05-21T22:42:36.643Z,17.10
2023-05-21T22:45:04.795Z,17.10
2023-05-21T22:47:32.187Z,17.10
2023-05-21T22:50:01.291Z,17.10
2023-05-21T22:52:28.735Z,17.10
2023-05-21T22:54:57.710Z,17.10
2023-05-21T22:57:24.613Z,17.10
2023-05-21T22:59:51.541Z,17.10
2023-05-21T23:02:18.503Z,17.10
2023-05-21T23:04:45.787Z,17.10
2023-05-21T23:07:12.812Z,17.20
2023-05-21T23:09:39.804Z,17.20
2023-05-21T23:12:07.758Z,17.20
2023-05-21T23:14:34.805Z,17.20
2023-05-21T23:17:02.289Z,17.20
2023-05-21T23:19:29.930Z,17.10
2023-05-21T23:21:57.258Z,17.10
2023-05-21T23:24:24.350Z,17.10
2023-05-21T23:26:52.833Z,17.10
2023-05-21T23:29:19.770Z,17.10
2023-05-21T23:31:46.864Z,17.10
2023-05-21T23:34:14.065Z,17.10
2023-05-21T23:36:41.017Z,17.00
2023-05-21T23:39:07.944Z,17.00
2023-05-21T23:41:34.913Z,16.90
2023-05-21T23:44:01.945Z,16.90
2023-05-21T23:46:28.917Z,16.90
2023-05-21T23:48:55.828Z,16.90
2023-05-21T23:51:22.934Z,16.90
2023-05-21T23:53:49.850Z,17.00
2023-05-21T23:56:16.849Z,17.00
2023-05-21T23:58:43.783Z,17.00
